KCDR/CDR METAR and TAF weather

Enter ICAO airport designator
Station Type Date Time Source
KCDR METAR 2019/04/25 01:53 UTC NOAA

KCDR 250153Z AUTO 08016KT 10SM FEW035 SCT070 SCT110 11/10 A2985 RMK AO2 PK WND 35035/0100 WSHFT 0122 LTG DSNT SE RAB0059E50 SLP108 P0023 T01110100


Station Type Date Time Source
KCDR Decoded METAR 2019/04/25 01:53 UTC NOAA

CHADRON MUNICIPAL AIRPORT, NE, United States (KCDR) 42-50N 103-06W 1010M
Apr 24, 2019 - 09:53 PM EDT / 2019.04.25 0153 UTC
Wind: from the E (080 degrees) at 18 MPH (16 KT):0
Visibility: 10 mile(s):0
Sky conditions: partly cloudy
Weather: Lightning observed
Precipitation last hour: 0.23 inches
Temperature: 52.0 F (11.1 C)
Dew Point: 50.0 F (10.0 C)
Relative Humidity: 92%
Pressure (altimeter): 29.85 in. Hg (1010 hPa)
ob: KCDR 250153Z AUTO 08016KT 10SM FEW035 SCT070 SCT110 11/10 A2985 RMK AO2 PK WND 35035/0100 WSHFT 0122 LTG DSNT SE RAB0059E50 SLP108 P0023 T01110100
cycle: 2

Station Type Date Time Source
KCDR TAF 2019/04/24 18:24 UTC NOAA

TAF KCDR 241722Z 2418/2518 02005KT P6SM FEW080
FM242000 36007KT P6SM VCSH SCT050 BKN100
FM250200 02012G20KT 3SM -SHRA VCTS SCT008 OVC040CB
FM250400 35008KT 2SM -SHRA BR SCT005 OVC020
FM250800 29009KT P6SM FEW050

Example: see airport list